Hartland, North Dakota
Current Conditions -  °F | °C
As of 8:58 AM on Wednesday 26 Nov 2014 (Local Time) from KMIB Reporting Station
Haze Haze  
Wind Chill: -10°   Ceiling: 1400
Heat Index:   Visibility: 5mi
Dew Point: -1°   Wind: 7mph
Humidity: 83%   Direction: 40°NE
Pressure: 30.36"   Gusts: NA
Location:  48.4159°N, 101.712°W
Report Text: KMIB 261458Z AUTO 04006KT 5SM HZ FEW002 BKN014 OVC027 M16/M18 A3036 RMK AO2 VIS 1/4 RWY29 SLP329 60000 T11621185 52020
Loading
Personal Weather Stations






























Interactive Weather Map New forecast layout! Learn more

10-Day Weather Forecast

Advertisements
Track Severe Weather on mobile